KNQX

Key West NAS / Boca Chica Field Airport

Key West, Florida, USA
METAR KNQX 151553Z 36009KT 10SM SCT005 BKN023 OVC029 22/21 A3011 RMK AO2 RAE16 SLP194 P0000 T02220206
Observed Flight Rules
Dec-15 @ 15:53 UTC (11 minutes ago) Marginal Visual Flight Rules
Wind Visibility Clouds
360° at 9 knots 10 miles
  • Scattered at 500' AGL
  • Broken at 2,300' AGL
  • Overcast at 2,900' AGL
Temperatures Readings Precipitation
Current 22°C / 72°F
Dewpoint 21°C / 70°F
Humidity 94%
Altimeter 30.11" Hg
Pressure 1019.4 hPa
Elevation 2
Current Rain 0.005
METAR KNQX 151553Z 36009KT 10SM SCT005 BKN023 OVC029 22/21 A3011 RMK AO2 RAE16 SLP194 P0000 T02220206
Observed Flight Rules
Dec-15 @ 15:53 UTC
(11 minutes ago)
MVFR
Wind Visibility
360° at 9 knots 10 miles
Clouds
  • Scattered at 500' AGL
  • Broken at 2,300' AGL
  • Overcast at 2,900' AGL
Temperature Dewpoint
22°C / 72°F 21°C / 70°F
Humidity Altimeter Pressure
94% 30.11" Hg 1019.4 hPa
Current Rain
0.005